sensor_id;sensor_type;location;lat;lon;timestamp;temperature;humidity
9998;DHT22;5038;53.064;8.624;2022-10-16T00:01:16;13.70;99.90
9998;DHT22;5038;53.064;8.624;2022-10-16T00:03:46;13.70;99.90
9998;DHT22;5038;53.064;8.624;2022-10-16T00:06:17;13.70;99.90
9998;DHT22;5038;53.064;8.624;2022-10-16T00:08:46;13.60;99.90
9998;DHT22;5038;53.064;8.624;2022-10-16T00:11:16;13.60;99.90
9998;DHT22;5038;53.064;8.624;2022-10-16T00:13:46;13.60;99.90
9998;DHT22;5038;53.064;8.624;2022-10-16T00:16:15;13.60;99.90
9998;DHT22;5038;53.064;8.624;2022-10-16T00:18:45;13.60;99.90
9998;DHT22;5038;53.064;8.624;2022-10-16T00:21:15;13.60;99.90
9998;DHT22;5038;53.064;8.624;2022-10-16T00:23:45;13.50;99.90
9998;DHT22;5038;53.064;8.624;2022-10-16T00:26:16;13.50;99.90
9998;DHT22;5038;53.064;8.624;2022-10-16T00:28:46;13.50;99.90
9998;DHT22;5038;53.064;8.624;2022-10-16T00:31:15;13.40;99.90
9998;DHT22;5038;53.064;8.624;2022-10-16T00:33:43;13.50;99.90
9998;DHT22;5038;53.064;8.624;2022-10-16T00:36:15;13.40;99.90
9998;DHT22;5038;53.064;8.624;2022-10-16T00:38:43;13.40;99.90
9998;DHT22;5038;53.064;8.624;2022-10-16T00:41:15;13.40;99.90
9998;DHT22;5038;53.064;8.624;2022-10-16T00:43:45;13.40;99.90
9998;DHT22;5038;53.064;8.624;2022-10-16T00:46:16;13.40;99.90
9998;DHT22;5038;53.064;8.624;2022-10-16T00:48:48;13.40;99.90
9998;DHT22;5038;53.064;8.624;2022-10-16T00:51:23;13.30;99.90
9998;DHT22;5038;53.064;8.624;2022-10-16T00:53:52;13.30;99.90
9998;DHT22;5038;53.064;8.624;2022-10-16T00:56:20;13.30;99.90
9998;DHT22;5038;53.064;8.624;2022-10-16T00:58:48;13.30;99.90
9998;DHT22;5038;53.064;8.624;2022-10-16T01:01:17;13.20;99.90
9998;DHT22;5038;53.064;8.624;2022-10-16T01:03:45;13.20;99.90
9998;DHT22;5038;53.064;8.624;2022-10-16T01:06:23;13.20;99.90
9998;DHT22;5038;53.064;8.624;2022-10-16T01:09:02;13.20;99.90
9998;DHT22;5038;53.064;8.624;2022-10-16T01:11:35;13.20;99.90
9998;DHT22;5038;53.064;8.624;2022-10-16T01:14:11;13.10;99.90
9998;DHT22;5038;53.064;8.624;2022-10-16T01:16:47;13.10;99.90
9998;DHT22;5038;53.064;8.624;2022-10-16T01:19:22;13.10;99.90
9998;DHT22;5038;53.064;8.624;2022-10-16T01:21:57;13.10;99.90
9998;DHT22;5038;53.064;8.624;2022-10-16T01:24:31;13.00;99.90
9998;DHT22;5038;53.064;8.624;2022-10-16T01:27:09;13.10;99.90
9998;DHT22;5038;53.064;8.624;2022-10-16T01:29:42;13.00;99.90
9998;DHT22;5038;53.064;8.624;2022-10-16T01:32:17;13.00;99.90
9998;DHT22;5038;53.064;8.624;2022-10-16T01:34:49;13.00;99.90
9998;DHT22;5038;53.064;8.624;2022-10-16T01:37:25;13.00;99.90
9998;DHT22;5038;53.064;8.624;2022-10-16T01:39:59;13.00;99.90
9998;DHT22;5038;53.064;8.624;2022-10-16T01:42:34;12.90;99.90
9998;DHT22;5038;53.064;8.624;2022-10-16T01:45:05;12.90;99.90
9998;DHT22;5038;53.064;8.624;2022-10-16T01:47:35;12.90;99.90
9998;DHT22;5038;53.064;8.624;2022-10-16T01:50:05;12.90;99.90
9998;DHT22;5038;53.064;8.624;2022-10-16T01:52:37;12.90;99.90
9998;DHT22;5038;53.064;8.624;2022-10-16T01:55:08;12.80;99.90
9998;DHT22;5038;53.064;8.624;2022-10-16T01:57:42;12.80;99.90
9998;DHT22;5038;53.064;8.624;2022-10-16T02:00:13;12.80;99.90
9998;DHT22;5038;53.064;8.624;2022-10-16T02:02:44;12.80;99.90
9998;DHT22;5038;53.064;8.624;2022-10-16T02:05:17;12.80;99.90
9998;DHT22;5038;53.064;8.624;2022-10-16T02:07:48;12.80;99.90
9998;DHT22;5038;53.064;8.624;2022-10-16T02:10:16;12.70;99.90
9998;DHT22;5038;53.064;8.624;2022-10-16T02:12:48;12.70;99.90
9998;DHT22;5038;53.064;8.624;2022-10-16T02:15:18;12.70;99.90
9998;DHT22;5038;53.064;8.624;2022-10-16T02:17:46;12.70;99.90
9998;DHT22;5038;53.064;8.624;2022-10-16T02:20:14;12.70;99.90
9998;DHT22;5038;53.064;8.624;2022-10-16T02:22:46;12.70;99.90
9998;DHT22;5038;53.064;8.624;2022-10-16T02:25:19;12.70;99.90
9998;DHT22;5038;53.064;8.624;2022-10-16T02:27:54;12.70;99.90
9998;DHT22;5038;53.064;8.624;2022-10-16T02:30:26;12.70;99.90
9998;DHT22;5038;53.064;8.624;2022-10-16T02:32:56;12.70;99.90
9998;DHT22;5038;53.064;8.624;2022-10-16T02:35:26;12.70;99.90
9998;DHT22;5038;53.064;8.624;2022-10-16T02:37:55;12.60;99.90
9998;DHT22;5038;53.064;8.624;2022-10-16T02:40:24;12.60;99.90
9998;DHT22;5038;53.064;8.624;2022-10-16T02:42:55;12.60;99.90
9998;DHT22;5038;53.064;8.624;2022-10-16T02:45:23;12.60;99.90
9998;DHT22;5038;53.064;8.624;2022-10-16T02:47:52;12.60;99.90
9998;DHT22;5038;53.064;8.624;2022-10-16T02:50:20;12.60;99.90
9998;DHT22;5038;53.064;8.624;2022-10-16T02:52:48;12.60;99.90
9998;DHT22;5038;53.064;8.624;2022-10-16T02:55:17;12.50;99.90
9998;DHT22;5038;53.064;8.624;2022-10-16T02:57:45;12.50;99.90
9998;DHT22;5038;53.064;8.624;2022-10-16T03:00:16;12.50;99.90
9998;DHT22;5038;53.064;8.624;2022-10-16T03:02:45;12.50;99.90
9998;DHT22;5038;53.064;8.624;2022-10-16T03:05:13;12.50;99.90
9998;DHT22;5038;53.064;8.624;2022-10-16T03:07:42;12.50;99.90
9998;DHT22;5038;53.064;8.624;2022-10-16T03:10:10;12.50;99.90
9998;DHT22;5038;53.064;8.624;2022-10-16T03:12:38;12.50;99.90
9998;DHT22;5038;53.064;8.624;2022-10-16T03:15:07;12.40;99.90
9998;DHT22;5038;53.064;8.624;2022-10-16T03:17:36;12.40;99.90
9998;DHT22;5038;53.064;8.624;2022-10-16T03:20:05;12.40;99.90
9998;DHT22;5038;53.064;8.624;2022-10-16T03:22:33;12.40;99.90
9998;DHT22;5038;53.064;8.624;2022-10-16T03:25:02;12.40;99.90
9998;DHT22;5038;53.064;8.624;2022-10-16T03:27:30;12.40;99.90
9998;DHT22;5038;53.064;8.624;2022-10-16T03:29:58;12.40;99.90
9998;DHT22;5038;53.064;8.624;2022-10-16T03:32:26;12.40;99.90
9998;DHT22;5038;53.064;8.624;2022-10-16T03:34:56;12.40;99.90
9998;DHT22;5038;53.064;8.624;2022-10-16T03:37:24;12.40;99.90
9998;DHT22;5038;53.064;8.624;2022-10-16T03:39:53;12.40;99.90
9998;DHT22;5038;53.064;8.624;2022-10-16T03:42:21;12.40;99.90
9998;DHT22;5038;53.064;8.624;2022-10-16T03:44:51;12.40;99.90
9998;DHT22;5038;53.064;8.624;2022-10-16T03:47:19;12.40;99.90
9998;DHT22;5038;53.064;8.624;2022-10-16T03:49:50;12.40;99.90
9998;DHT22;5038;53.064;8.624;2022-10-16T03:52:20;12.40;99.90
9998;DHT22;5038;53.064;8.624;2022-10-16T03:54:48;12.40;99.90
9998;DHT22;5038;53.064;8.624;2022-10-16T03:57:16;12.40;99.90
9998;DHT22;5038;53.064;8.624;2022-10-16T03:59:44;12.40;99.90
9998;DHT22;5038;53.064;8.624;2022-10-16T04:02:12;12.30;99.90
9998;DHT22;5038;53.064;8.624;2022-10-16T04:04:40;12.30;99.90
9998;DHT22;5038;53.064;8.624;2022-10-16T04:07:09;12.30;99.90
9998;DHT22;5038;53.064;8.624;2022-10-16T04:09:38;12.30;99.90
9998;DHT22;5038;53.064;8.624;2022-10-16T04:12:06;12.30;99.90
9998;DHT22;5038;53.064;8.624;2022-10-16T04:14:34;12.30;99.90
9998;DHT22;5038;53.064;8.624;2022-10-16T04:17:02;12.30;99.90
9998;DHT22;5038;53.064;8.624;2022-10-16T04:19:30;12.30;99.90
9998;DHT22;5038;53.064;8.624;2022-10-16T04:21:58;12.30;99.90
9998;DHT22;5038;53.064;8.624;2022-10-16T04:24:27;12.30;99.90
9998;DHT22;5038;53.064;8.624;2022-10-16T04:26:56;12.30;99.90
9998;DHT22;5038;53.064;8.624;2022-10-16T04:29:24;12.30;99.90
9998;DHT22;5038;53.064;8.624;2022-10-16T04:31:52;12.40;99.90
9998;DHT22;5038;53.064;8.624;2022-10-16T04:34:20;12.40;99.90
9998;DHT22;5038;53.064;8.624;2022-10-16T04:36:48;12.40;99.90
9998;DHT22;5038;53.064;8.624;2022-10-16T04:39:17;12.40;99.90
9998;DHT22;5038;53.064;8.624;2022-10-16T04:41:45;12.50;99.90
9998;DHT22;5038;53.064;8.624;2022-10-16T04:44:14;12.50;99.90
9998;DHT22;5038;53.064;8.624;2022-10-16T04:46:42;12.50;99.90
9998;DHT22;5038;53.064;8.624;2022-10-16T04:49:11;12.50;99.90
9998;DHT22;5038;53.064;8.624;2022-10-16T04:51:39;12.50;99.90
9998;DHT22;5038;53.064;8.624;2022-10-16T04:54:08;12.50;99.90
9998;DHT22;5038;53.064;8.624;2022-10-16T04:56:36;12.50;99.90
9998;DHT22;5038;53.064;8.624;2022-10-16T04:59:10;12.50;99.90
9998;DHT22;5038;53.064;8.624;2022-10-16T05:01:39;12.50;99.90
9998;DHT22;5038;53.064;8.624;2022-10-16T05:04:07;12.50;99.90
9998;DHT22;5038;53.064;8.624;2022-10-16T05:06:36;12.50;99.90
9998;DHT22;5038;53.064;8.624;2022-10-16T05:09:05;12.60;99.90
9998;DHT22;5038;53.064;8.624;2022-10-16T05:11:34;12.60;99.90
9998;DHT22;5038;53.064;8.624;2022-10-16T05:14:02;12.60;99.90
9998;DHT22;5038;53.064;8.624;2022-10-16T05:16:30;12.60;99.90
9998;DHT22;5038;53.064;8.624;2022-10-16T05:19:00;12.60;99.90
9998;DHT22;5038;53.064;8.624;2022-10-16T05:21:48;12.60;99.90
9998;DHT22;5038;53.064;8.624;2022-10-16T05:24:16;12.60;99.90
9998;DHT22;5038;53.064;8.624;2022-10-16T05:26:44;12.60;99.90
9998;DHT22;5038;53.064;8.624;2022-10-16T05:29:12;12.70;99.90
9998;DHT22;5038;53.064;8.624;2022-10-16T05:31:40;12.70;99.90
9998;DHT22;5038;53.064;8.624;2022-10-16T05:34:10;12.70;99.90
9998;DHT22;5038;53.064;8.624;2022-10-16T05:36:38;12.70;99.90
9998;DHT22;5038;53.064;8.624;2022-10-16T05:39:06;12.70;99.90
9998;DHT22;5038;53.064;8.624;2022-10-16T05:41:34;12.80;99.90
9998;DHT22;5038;53.064;8.624;2022-10-16T05:44:04;12.80;99.90
9998;DHT22;5038;53.064;8.624;2022-10-16T05:46:33;12.80;99.90
9998;DHT22;5038;53.064;8.624;2022-10-16T05:49:01;12.80;99.90
9998;DHT22;5038;53.064;8.624;2022-10-16T05:51:31;12.80;99.90
9998;DHT22;5038;53.064;8.624;2022-10-16T05:53:59;12.80;99.90
9998;DHT22;5038;53.064;8.624;2022-10-16T05:56:27;12.80;99.90
9998;DHT22;5038;53.064;8.624;2022-10-16T05:58:55;12.80;99.90
9998;DHT22;5038;53.064;8.624;2022-10-16T06:01:24;12.80;99.90
9998;DHT22;5038;53.064;8.624;2022-10-16T06:03:52;12.80;99.90
9998;DHT22;5038;53.064;8.624;2022-10-16T06:06:22;12.90;99.90
9998;DHT22;5038;53.064;8.624;2022-10-16T06:08:53;12.90;99.90
9998;DHT22;5038;53.064;8.624;2022-10-16T06:11:23;12.90;99.90
9998;DHT22;5038;53.064;8.624;2022-10-16T06:13:53;12.90;99.90
9998;DHT22;5038;53.064;8.624;2022-10-16T06:16:24;12.90;99.90
9998;DHT22;5038;53.064;8.624;2022-10-16T06:18:52;12.90;99.90
9998;DHT22;5038;53.064;8.624;2022-10-16T06:21:23;12.90;99.90
9998;DHT22;5038;53.064;8.624;2022-10-16T06:23:54;12.90;99.90
9998;DHT22;5038;53.064;8.624;2022-10-16T06:26:23;13.00;99.90
9998;DHT22;5038;53.064;8.624;2022-10-16T06:28:54;13.00;99.90
9998;DHT22;5038;53.064;8.624;2022-10-16T06:31:24;13.00;99.90
9998;DHT22;5038;53.064;8.624;2022-10-16T06:33:55;13.00;99.90
9998;DHT22;5038;53.064;8.624;2022-10-16T06:36:23;13.00;99.90
9998;DHT22;5038;53.064;8.624;2022-10-16T06:38:53;13.00;99.90
9998;DHT22;5038;53.064;8.624;2022-10-16T06:41:22;13.00;99.90
9998;DHT22;5038;53.064;8.624;2022-10-16T06:43:51;13.00;99.90
9998;DHT22;5038;53.064;8.624;2022-10-16T06:46:21;13.10;99.90
9998;DHT22;5038;53.064;8.624;2022-10-16T06:48:50;13.10;99.90
9998;DHT22;5038;53.064;8.624;2022-10-16T06:51:19;13.10;99.90
9998;DHT22;5038;53.064;8.624;2022-10-16T06:53:48;13.10;99.90
9998;DHT22;5038;53.064;8.624;2022-10-16T06:56:34;13.10;99.90
9998;DHT22;5038;53.064;8.624;2022-10-16T06:59:03;13.10;99.90
9998;DHT22;5038;53.064;8.624;2022-10-16T07:01:33;13.10;99.90
9998;DHT22;5038;53.064;8.624;2022-10-16T07:04:01;13.10;99.90
9998;DHT22;5038;53.064;8.624;2022-10-16T07:06:31;13.10;99.90
9998;DHT22;5038;53.064;8.624;2022-10-16T07:09:03;13.20;99.90
9998;DHT22;5038;53.064;8.624;2022-10-16T07:11:33;13.20;99.90
9998;DHT22;5038;53.064;8.624;2022-10-16T07:14:02;13.20;99.90
9998;DHT22;5038;53.064;8.624;2022-10-16T07:16:31;13.20;99.90
9998;DHT22;5038;53.064;8.624;2022-10-16T07:19:01;13.20;99.90
9998;DHT22;5038;53.064;8.624;2022-10-16T07:21:32;13.30;99.90
9998;DHT22;5038;53.064;8.624;2022-10-16T07:24:04;13.30;99.90
9998;DHT22;5038;53.064;8.624;2022-10-16T07:26:36;13.30;99.90
9998;DHT22;5038;53.064;8.624;2022-10-16T07:29:06;13.30;99.90
9998;DHT22;5038;53.064;8.624;2022-10-16T07:31:36;13.40;99.90
9998;DHT22;5038;53.064;8.624;2022-10-16T07:34:05;13.40;99.90
9998;DHT22;5038;53.064;8.624;2022-10-16T07:36:33;13.40;99.90
9998;DHT22;5038;53.064;8.624;2022-10-16T07:39:01;13.40;99.90
9998;DHT22;5038;53.064;8.624;2022-10-16T07:41:29;13.50;99.90
9998;DHT22;5038;53.064;8.624;2022-10-16T07:44:00;13.50;99.90
9998;DHT22;5038;53.064;8.624;2022-10-16T07:46:29;13.50;99.90
9998;DHT22;5038;53.064;8.624;2022-10-16T07:48:57;13.50;99.90
9998;DHT22;5038;53.064;8.624;2022-10-16T07:51:26;13.50;99.90
9998;DHT22;5038;53.064;8.624;2022-10-16T07:53:54;13.50;99.90
9998;DHT22;5038;53.064;8.624;2022-10-16T07:56:23;13.60;99.90
9998;DHT22;5038;53.064;8.624;2022-10-16T07:58:51;13.60;99.90
9998;DHT22;5038;53.064;8.624;2022-10-16T08:01:20;13.70;99.90
9998;DHT22;5038;53.064;8.624;2022-10-16T08:03:50;13.70;99.90
9998;DHT22;5038;53.064;8.624;2022-10-16T08:06:20;13.80;99.90
9998;DHT22;5038;53.064;8.624;2022-10-16T08:08:54;13.80;99.90
9998;DHT22;5038;53.064;8.624;2022-10-16T08:11:22;13.90;99.90
9998;DHT22;5038;53.064;8.624;2022-10-16T08:13:51;13.90;99.90
9998;DHT22;5038;53.064;8.624;2022-10-16T08:16:20;14.00;99.90
9998;DHT22;5038;53.064;8.624;2022-10-16T08:18:49;14.10;99.90
9998;DHT22;5038;53.064;8.624;2022-10-16T08:21:20;14.20;99.90
9998;DHT22;5038;53.064;8.624;2022-10-16T08:23:49;14.20;99.90
9998;DHT22;5038;53.064;8.624;2022-10-16T08:26:25;14.30;99.90
9998;DHT22;5038;53.064;8.624;2022-10-16T08:28:53;14.30;99.90
9998;DHT22;5038;53.064;8.624;2022-10-16T08:31:23;14.40;99.90
9998;DHT22;5038;53.064;8.624;2022-10-16T08:33:53;14.50;99.90
9998;DHT22;5038;53.064;8.624;2022-10-16T08:36:21;14.50;99.90
9998;DHT22;5038;53.064;8.624;2022-10-16T08:38:50;14.60;99.90
9998;DHT22;5038;53.064;8.624;2022-10-16T08:44:43;14.70;99.90
9998;DHT22;5038;53.064;8.624;2022-10-16T08:47:21;14.80;99.90
9998;DHT22;5038;53.064;8.624;2022-10-16T08:49:56;14.80;99.90
9998;DHT22;5038;53.064;8.624;2022-10-16T08:52:28;14.90;99.90
9998;DHT22;5038;53.064;8.624;2022-10-16T08:54:57;15.00;99.90
9998;DHT22;5038;53.064;8.624;2022-10-16T08:57:26;15.00;99.90
9998;DHT22;5038;53.064;8.624;2022-10-16T08:59:54;15.10;99.90
9998;DHT22;5038;53.064;8.624;2022-10-16T09:02:31;15.10;99.90
9998;DHT22;5038;53.064;8.624;2022-10-16T09:07:53;15.20;99.90
9998;DHT22;5038;53.064;8.624;2022-10-16T09:10:33;15.30;99.90
9998;DHT22;5038;53.064;8.624;2022-10-16T09:13:14;15.30;99.90
9998;DHT22;5038;53.064;8.624;2022-10-16T09:15:50;15.40;99.90
9998;DHT22;5038;53.064;8.624;2022-10-16T09:18:26;15.50;99.90
9998;DHT22;5038;53.064;8.624;2022-10-16T09:21:02;15.60;99.90
9998;DHT22;5038;53.064;8.624;2022-10-16T09:23:35;15.70;99.90
9998;DHT22;5038;53.064;8.624;2022-10-16T09:26:05;15.70;99.90
9998;DHT22;5038;53.064;8.624;2022-10-16T09:28:35;15.70;99.90
9998;DHT22;5038;53.064;8.624;2022-10-16T09:31:04;15.70;99.90
9998;DHT22;5038;53.064;8.624;2022-10-16T09:33:36;15.70;99.90
9998;DHT22;5038;53.064;8.624;2022-10-16T09:36:07;15.80;99.90
9998;DHT22;5038;53.064;8.624;2022-10-16T09:38:36;15.80;99.90
9998;DHT22;5038;53.064;8.624;2022-10-16T09:41:16;15.80;99.90
9998;DHT22;5038;53.064;8.624;2022-10-16T09:43:52;15.90;99.90
9998;DHT22;5038;53.064;8.624;2022-10-16T09:46:26;15.90;99.90
9998;DHT22;5038;53.064;8.624;2022-10-16T09:48:58;15.90;99.90
9998;DHT22;5038;53.064;8.624;2022-10-16T09:51:28;16.00;99.90
9998;DHT22;5038;53.064;8.624;2022-10-16T09:53:59;16.10;99.90
9998;DHT22;5038;53.064;8.624;2022-10-16T09:56:28;16.10;99.90
9998;DHT22;5038;53.064;8.624;2022-10-16T09:58:58;16.20;99.90
9998;DHT22;5038;53.064;8.624;2022-10-16T10:01:31;16.20;99.90
9998;DHT22;5038;53.064;8.624;2022-10-16T10:04:05;16.30;99.90
9998;DHT22;5038;53.064;8.624;2022-10-16T10:06:35;16.30;99.90
9998;DHT22;5038;53.064;8.624;2022-10-16T10:09:06;16.30;99.90
9998;DHT22;5038;53.064;8.624;2022-10-16T10:11:48;16.40;99.90
9998;DHT22;5038;53.064;8.624;2022-10-16T10:14:20;16.40;99.90
9998;DHT22;5038;53.064;8.624;2022-10-16T10:16:50;16.50;99.90
9998;DHT22;5038;53.064;8.624;2022-10-16T10:19:21;16.50;99.90
9998;DHT22;5038;53.064;8.624;2022-10-16T10:21:53;16.60;99.90
9998;DHT22;5038;53.064;8.624;2022-10-16T10:24:22;16.70;99.90
9998;DHT22;5038;53.064;8.624;2022-10-16T10:26:54;16.70;99.90
9998;DHT22;5038;53.064;8.624;2022-10-16T10:29:34;16.80;99.90
9998;DHT22;5038;53.064;8.624;2022-10-16T10:32:13;16.80;99.90
9998;DHT22;5038;53.064;8.624;2022-10-16T10:35:02;16.90;99.90
9998;DHT22;5038;53.064;8.624;2022-10-16T10:40:39;17.00;99.90
9998;DHT22;5038;53.064;8.624;2022-10-16T10:43:16;17.00;99.90
9998;DHT22;5038;53.064;8.624;2022-10-16T10:45:52;17.10;99.90
9998;DHT22;5038;53.064;8.624;2022-10-16T10:51:29;17.20;99.90
9998;DHT22;5038;53.064;8.624;2022-10-16T10:54:07;17.20;99.90
9998;DHT22;5038;53.064;8.624;2022-10-16T10:56:45;17.30;99.90
9998;DHT22;5038;53.064;8.624;2022-10-16T10:59:41;17.30;99.90
9998;DHT22;5038;53.064;8.624;2022-10-16T11:02:17;17.30;99.90
9998;DHT22;5038;53.064;8.624;2022-10-16T11:05:07;17.30;99.90
9998;DHT22;5038;53.064;8.624;2022-10-16T11:07:44;17.40;99.90
9998;DHT22;5038;53.064;8.624;2022-10-16T11:10:18;17.40;99.90
9998;DHT22;5038;53.064;8.624;2022-10-16T11:12:49;17.40;99.90
9998;DHT22;5038;53.064;8.624;2022-10-16T11:15:22;17.50;99.90
9998;DHT22;5038;53.064;8.624;2022-10-16T11:17:54;17.50;99.90
9998;DHT22;5038;53.064;8.624;2022-10-16T11:20:26;17.50;99.90
9998;DHT22;5038;53.064;8.624;2022-10-16T11:23:01;17.50;99.90
9998;DHT22;5038;53.064;8.624;2022-10-16T11:25:33;17.50;99.90
9998;DHT22;5038;53.064;8.624;2022-10-16T11:28:06;17.50;99.90
9998;DHT22;5038;53.064;8.624;2022-10-16T11:30:43;17.50;99.90
9998;DHT22;5038;53.064;8.624;2022-10-16T11:33:27;17.60;99.90
9998;DHT22;5038;53.064;8.624;2022-10-16T11:36:04;17.60;99.90
9998;DHT22;5038;53.064;8.624;2022-10-16T11:38:41;17.60;99.90
9998;DHT22;5038;53.064;8.624;2022-10-16T11:41:18;17.70;99.90
9998;DHT22;5038;53.064;8.624;2022-10-16T11:43:56;17.70;99.90
9998;DHT22;5038;53.064;8.624;2022-10-16T11:46:27;17.70;99.90
9998;DHT22;5038;53.064;8.624;2022-10-16T11:49:02;17.80;99.90
9998;DHT22;5038;53.064;8.624;2022-10-16T11:51:35;17.80;99.90
9998;DHT22;5038;53.064;8.624;2022-10-16T11:54:13;17.90;99.90
9998;DHT22;5038;53.064;8.624;2022-10-16T11:56:45;17.90;99.90
9998;DHT22;5038;53.064;8.624;2022-10-16T11:59:20;17.90;99.90
9998;DHT22;5038;53.064;8.624;2022-10-16T12:01:57;17.90;99.90
9998;DHT22;5038;53.064;8.624;2022-10-16T12:04:32;18.00;99.90
9998;DHT22;5038;53.064;8.624;2022-10-16T12:07:04;17.90;99.90
9998;DHT22;5038;53.064;8.624;2022-10-16T12:09:38;17.90;99.90
9998;DHT22;5038;53.064;8.624;2022-10-16T12:12:24;17.90;99.90
9998;DHT22;5038;53.064;8.624;2022-10-16T12:15:02;17.90;99.90
9998;DHT22;5038;53.064;8.624;2022-10-16T12:17:48;17.90;99.90
9998;DHT22;5038;53.064;8.624;2022-10-16T12:20:26;17.90;99.90
9998;DHT22;5038;53.064;8.624;2022-10-16T12:23:01;18.00;99.90
9998;DHT22;5038;53.064;8.624;2022-10-16T12:25:33;18.00;99.90
9998;DHT22;5038;53.064;8.624;2022-10-16T12:28:04;18.00;99.90
9998;DHT22;5038;53.064;8.624;2022-10-16T12:30:35;18.10;99.90
9998;DHT22;5038;53.064;8.624;2022-10-16T12:33:05;18.20;99.90
9998;DHT22;5038;53.064;8.624;2022-10-16T12:35:35;18.20;99.90
9998;DHT22;5038;53.064;8.624;2022-10-16T12:38:17;18.20;99.90
9998;DHT22;5038;53.064;8.624;2022-10-16T12:40:55;18.20;99.90
9998;DHT22;5038;53.064;8.624;2022-10-16T12:43:36;18.20;99.90
9998;DHT22;5038;53.064;8.624;2022-10-16T12:46:20;18.30;99.90
9998;DHT22;5038;53.064;8.624;2022-10-16T12:48:49;18.40;99.90
9998;DHT22;5038;53.064;8.624;2022-10-16T12:51:35;18.40;99.90
9998;DHT22;5038;53.064;8.624;2022-10-16T12:54:05;18.50;99.90
9998;DHT22;5038;53.064;8.624;2022-10-16T12:56:50;18.60;99.90
9998;DHT22;5038;53.064;8.624;2022-10-16T12:59:28;18.60;99.90
9998;DHT22;5038;53.064;8.624;2022-10-16T13:02:28;18.60;99.90
9998;DHT22;5038;53.064;8.624;2022-10-16T13:05:14;18.60;99.90
9998;DHT22;5038;53.064;8.624;2022-10-16T13:07:56;18.70;99.90
9998;DHT22;5038;53.064;8.624;2022-10-16T13:10:34;18.80;99.90
9998;DHT22;5038;53.064;8.624;2022-10-16T13:13:19;18.70;99.90
9998;DHT22;5038;53.064;8.624;2022-10-16T13:16:01;18.80;99.90
9998;DHT22;5038;53.064;8.624;2022-10-16T13:18:38;18.80;99.90
9998;DHT22;5038;53.064;8.624;2022-10-16T13:21:19;18.80;99.90
9998;DHT22;5038;53.064;8.624;2022-10-16T13:23:55;18.80;99.90
9998;DHT22;5038;53.064;8.624;2022-10-16T13:26:34;18.80;99.90
9998;DHT22;5038;53.064;8.624;2022-10-16T13:29:09;18.90;99.90
9998;DHT22;5038;53.064;8.624;2022-10-16T13:31:38;18.90;99.90
9998;DHT22;5038;53.064;8.624;2022-10-16T13:34:12;18.90;99.90
9998;DHT22;5038;53.064;8.624;2022-10-16T13:36:47;18.90;99.90
9998;DHT22;5038;53.064;8.624;2022-10-16T13:39:21;18.90;99.90
9998;DHT22;5038;53.064;8.624;2022-10-16T13:42:05;19.00;99.90
9998;DHT22;5038;53.064;8.624;2022-10-16T13:44:40;19.00;99.90
9998;DHT22;5038;53.064;8.624;2022-10-16T13:47:16;19.00;99.90
9998;DHT22;5038;53.064;8.624;2022-10-16T13:49:44;19.00;99.90
9998;DHT22;5038;53.064;8.624;2022-10-16T13:52:18;19.00;99.90
9998;DHT22;5038;53.064;8.624;2022-10-16T13:54:46;19.00;99.90
9998;DHT22;5038;53.064;8.624;2022-10-16T13:57:15;19.00;99.90
9998;DHT22;5038;53.064;8.624;2022-10-16T14:00:00;19.00;99.90
9998;DHT22;5038;53.064;8.624;2022-10-16T14:02:33;19.00;99.90
9998;DHT22;5038;53.064;8.624;2022-10-16T14:05:04;19.00;99.90
9998;DHT22;5038;53.064;8.624;2022-10-16T14:07:36;19.00;99.90
9998;DHT22;5038;53.064;8.624;2022-10-16T14:10:18;19.10;99.90
9998;DHT22;5038;53.064;8.624;2022-10-16T14:12:55;19.10;99.90
9998;DHT22;5038;53.064;8.624;2022-10-16T14:15:25;19.00;99.90
9998;DHT22;5038;53.064;8.624;2022-10-16T14:17:53;19.00;99.90
9998;DHT22;5038;53.064;8.624;2022-10-16T14:20:26;19.00;99.90
9998;DHT22;5038;53.064;8.624;2022-10-16T14:23:00;19.00;99.90
9998;DHT22;5038;53.064;8.624;2022-10-16T14:25:30;19.00;99.90
9998;DHT22;5038;53.064;8.624;2022-10-16T14:28:01;18.90;99.90
9998;DHT22;5038;53.064;8.624;2022-10-16T14:30:34;18.90;99.90
9998;DHT22;5038;53.064;8.624;2022-10-16T14:33:04;18.90;99.90
9998;DHT22;5038;53.064;8.624;2022-10-16T14:35:35;18.80;99.90
9998;DHT22;5038;53.064;8.624;2022-10-16T14:38:05;18.90;99.90
9998;DHT22;5038;53.064;8.624;2022-10-16T14:40:35;18.80;99.90
9998;DHT22;5038;53.064;8.624;2022-10-16T14:43:04;18.80;99.90
9998;DHT22;5038;53.064;8.624;2022-10-16T14:45:35;18.80;99.90
9998;DHT22;5038;53.064;8.624;2022-10-16T14:48:06;18.70;99.90
9998;DHT22;5038;53.064;8.624;2022-10-16T14:50:45;18.70;99.90
9998;DHT22;5038;53.064;8.624;2022-10-16T14:53:14;18.70;99.90
9998;DHT22;5038;53.064;8.624;2022-10-16T14:55:42;18.60;99.90
9998;DHT22;5038;53.064;8.624;2022-10-16T14:58:14;18.60;99.90
9998;DHT22;5038;53.064;8.624;2022-10-16T15:00:44;18.60;99.90
9998;DHT22;5038;53.064;8.624;2022-10-16T15:03:12;18.60;99.90
9998;DHT22;5038;53.064;8.624;2022-10-16T15:05:40;18.60;99.90
9998;DHT22;5038;53.064;8.624;2022-10-16T15:08:08;18.50;99.90
9998;DHT22;5038;53.064;8.624;2022-10-16T15:10:40;18.50;99.90
9998;DHT22;5038;53.064;8.624;2022-10-16T15:13:13;18.50;99.90
9998;DHT22;5038;53.064;8.624;2022-10-16T15:15:44;18.40;99.90
9998;DHT22;5038;53.064;8.624;2022-10-16T15:18:13;18.40;99.90
9998;DHT22;5038;53.064;8.624;2022-10-16T15:20:48;18.40;99.90
9998;DHT22;5038;53.064;8.624;2022-10-16T15:23:18;18.40;99.90
9998;DHT22;5038;53.064;8.624;2022-10-16T15:25:48;18.30;99.90
9998;DHT22;5038;53.064;8.624;2022-10-16T15:28:17;18.30;99.90
9998;DHT22;5038;53.064;8.624;2022-10-16T15:30:50;18.30;99.90
9998;DHT22;5038;53.064;8.624;2022-10-16T15:33:20;18.30;99.90
9998;DHT22;5038;53.064;8.624;2022-10-16T15:35:50;18.20;99.90
9998;DHT22;5038;53.064;8.624;2022-10-16T15:38:20;18.20;99.90
9998;DHT22;5038;53.064;8.624;2022-10-16T15:40:48;18.20;99.90
9998;DHT22;5038;53.064;8.624;2022-10-16T15:43:17;18.10;99.90
9998;DHT22;5038;53.064;8.624;2022-10-16T15:45:58;18.10;99.90
9998;DHT22;5038;53.064;8.624;2022-10-16T15:48:27;18.10;99.90
9998;DHT22;5038;53.064;8.624;2022-10-16T15:50:55;18.00;99.90
9998;DHT22;5038;53.064;8.624;2022-10-16T15:53:23;17.90;99.90
9998;DHT22;5038;53.064;8.624;2022-10-16T15:55:51;17.90;99.90
9998;DHT22;5038;53.064;8.624;2022-10-16T15:58:19;17.90;99.90
9998;DHT22;5038;53.064;8.624;2022-10-16T16:00:56;17.80;99.90
9998;DHT22;5038;53.064;8.624;2022-10-16T16:03:24;17.80;99.90
9998;DHT22;5038;53.064;8.624;2022-10-16T16:05:52;17.70;99.90
9998;DHT22;5038;53.064;8.624;2022-10-16T16:08:21;17.70;99.90
9998;DHT22;5038;53.064;8.624;2022-10-16T16:10:58;17.60;99.90
9998;DHT22;5038;53.064;8.624;2022-10-16T16:13:26;17.50;99.90
9998;DHT22;5038;53.064;8.624;2022-10-16T16:15:56;17.50;99.90
9998;DHT22;5038;53.064;8.624;2022-10-16T16:18:24;17.40;99.90
9998;DHT22;5038;53.064;8.624;2022-10-16T16:20:52;17.40;99.90
9998;DHT22;5038;53.064;8.624;2022-10-16T16:23:21;17.30;99.90
9998;DHT22;5038;53.064;8.624;2022-10-16T16:26:04;17.30;99.90
9998;DHT22;5038;53.064;8.624;2022-10-16T16:28:32;17.20;99.90
9998;DHT22;5038;53.064;8.624;2022-10-16T16:31:02;17.10;99.90
9998;DHT22;5038;53.064;8.624;2022-10-16T16:33:30;17.00;99.90
9998;DHT22;5038;53.064;8.624;2022-10-16T16:35:59;17.00;99.90
9998;DHT22;5038;53.064;8.624;2022-10-16T16:38:29;16.90;99.90
9998;DHT22;5038;53.064;8.624;2022-10-16T16:40:57;16.80;99.90
9998;DHT22;5038;53.064;8.624;2022-10-16T16:43:25;16.70;99.90